Back to Top

Language: 

My Weather Underground Personal Weather Station Historical Data with Graphs...

Delerius Weather Station Historical Data
Daily Summary for September 15, 2017 Units:  Metric    English   Both
« Previous Day
Next Day »
Daily Weekly Monthly Yearly Custom
  High: Low: Average:
Temperature: 16.3 °C 7.1 °C 11.2 °C
Dew Point: 11.1 °C 5.6 °C 8.3 °C
Humidity: 93 % 60 % 83 %
Wind Speed: 14.5 km/h 1.6 km/h 6.9 km/h
Wind Gust: 30.6 km/h - -
Wind:- - West
Pressure: 1013.1 hPa 1011.1 hPa -
Precipitation: 3.3 mm    
Historical Graphs
 
 
Tabular Data for September 15, 2017
Time Temperature Dew Point Pressure Wind Wind Speed Wind Gust Humidity Rainfall Rate (Hourly) solar Conditions
00:00 9.5 °C 7.3 °C 1011.1 hPa WNW 8 km/h 14.5 km/h 86 % 0 mm 0 W/m2
00:05 9.6 °C 7.4 °C 1011.4 hPa WNW 8 km/h 16.1 km/h 86 % 0 mm 0 W/m2
00:10 9.6 °C 7.4 °C 1011.4 hPa WNW 9.7 km/h 16.1 km/h 86 % 0 mm 0 W/m2
00:15 9.7 °C 7.4 °C 1011.4 hPa WNW 9.7 km/h 17.7 km/h 86 % 0 mm 0 W/m2
00:20 9.7 °C 7.4 °C 1011.1 hPa WNW 9.7 km/h 17.7 km/h 86 % 0 mm 0 W/m2
00:25 9.7 °C 7.4 °C 1011.1 hPa WNW 9.7 km/h 17.7 km/h 86 % 0 mm 0 W/m2
00:30 9.7 °C 7.4 °C 1011.1 hPa WNW 11.3 km/h 20.9 km/h 86 % 0 mm 0 W/m2
00:35 9.7 °C 7.3 °C 1011.4 hPa WNW 11.3 km/h 20.9 km/h 85 % 0 mm 0 W/m2
00:40 9.7 °C 7.3 °C 1011.1 hPa WNW 11.3 km/h 16.1 km/h 85 % 0 mm 0 W/m2
00:45 9.7 °C 7.3 °C 1011.1 hPa WNW 11.3 km/h 16.1 km/h 85 % 0 mm 0 W/m2
00:50 9.7 °C 7.3 °C 1011.1 hPa WNW 9.7 km/h 17.7 km/h 85 % 0 mm 0 W/m2
00:55 9.6 °C 7.2 °C 1011.1 hPa WNW 9.7 km/h 17.7 km/h 85 % 0 mm 0 W/m2
01:00 9.6 °C 7.2 °C 1011.1 hPa WNW 9.7 km/h 16.1 km/h 85 % 0 mm 0 W/m2
01:05 9.6 °C 7.2 °C 1011.4 hPa WNW 9.7 km/h 16.1 km/h 85 % 0 mm 0 W/m2
01:11 9.5 °C 7.1 °C 1011.1 hPa WNW 8 km/h 14.5 km/h 85 % 0 mm 0 W/m2
01:16 9.4 °C 7 °C 1011.1 hPa WNW 8 km/h 12.9 km/h 85 % 0 mm 0 W/m2
01:21 9.4 °C 7 °C 1011.1 hPa WNW 8 km/h 12.9 km/h 85 % 0 mm 0 W/m2
01:26 9.3 °C 6.9 °C 1011.1 hPa WNW 9.7 km/h 17.7 km/h 85 % 0 mm 0 W/m2
01:31 9.3 °C 6.9 °C 1011.1 hPa WNW 9.7 km/h 17.7 km/h 85 % 0 mm 0 W/m2
01:36 9.2 °C 6.8 °C 1011.1 hPa WNW 9.7 km/h 17.7 km/h 85 % 0 mm 0 W/m2
01:41 9.1 °C 6.7 °C 1011.1 hPa WNW 8 km/h 17.7 km/h 85 % 0 mm 0 W/m2
01:46 9 °C 6.6 °C 1011.1 hPa WNW 8 km/h 12.9 km/h 85 % 0 mm 0 W/m2
01:51 8.8 °C 6.6 °C 1011.1 hPa WNW 8 km/h 12.9 km/h 86 % 0 mm 0 W/m2
01:56 8.7 °C 6.5 °C 1011.1 hPa WNW 8 km/h 11.3 km/h 86 % 0 mm 0 W/m2
02:01 8.6 °C 6.4 °C 1011.1 hPa West 6.4 km/h 11.3 km/h 86 % 0 mm 0 W/m2
02:06 8.5 °C 6.4 °C 1011.1 hPa West 6.4 km/h 11.3 km/h 87 % 0 mm 0 W/m2
02:11 8.4 °C 6.3 °C 1011.1 hPa WNW 4.8 km/h 9.7 km/h 87 % 0 mm 0 W/m2
02:16 8.3 °C 6.3 °C 1011.1 hPa WNW 6.4 km/h 11.3 km/h 87 % 0 mm 0 W/m2
02:21 8.3 °C 6.3 °C 1011.4 hPa WNW 4.8 km/h 11.3 km/h 87 % 0 mm 0 W/m2
02:26 8.2 °C 6.3 °C 1011.4 hPa WNW 4.8 km/h 8 km/h 88 % 0 mm 0 W/m2
02:31 8.1 °C 6.1 °C 1011.4 hPa WNW 3.2 km/h 6.4 km/h 87 % 0 mm 0 W/m2
02:36 8 °C 6.1 °C 1011.4 hPa WNW 3.2 km/h 9.7 km/h 88 % 0 mm 0 W/m2
02:41 7.9 °C 6.1 °C 1011.4 hPa WNW 3.2 km/h 9.7 km/h 88 % 0 mm 0 W/m2
02:46 7.9 °C 6.1 °C 1011.4 hPa WNW 3.2 km/h 9.7 km/h 88 % 0 mm 0 W/m2
02:51 7.8 °C 5.9 °C 1011.4 hPa WNW 1.6 km/h 4.8 km/h 88 % 0 mm 0 W/m2
02:56 7.7 °C 5.8 °C 1011.1 hPa WNW 1.6 km/h 4.8 km/h 88 % 0 mm 0 W/m2
03:01 7.5 °C 5.7 °C 1011.1 hPa WNW 1.6 km/h 8 km/h 88 % 0 mm 0 W/m2
03:06 7.4 °C 5.7 °C 1011.4 hPa WNW 3.2 km/h 8 km/h 89 % 0 mm 0 W/m2
03:11 7.3 °C 5.6 °C 1011.1 hPa WNW 4.8 km/h 9.7 km/h 89 % 0 mm 0 W/m2
03:16 7.3 °C 5.8 °C 1011.1 hPa WNW 4.8 km/h 11.3 km/h 90 % 0 mm 0 W/m2
03:21 7.4 °C 6 °C 1011.1 hPa WNW 8 km/h 12.9 km/h 91 % 0 mm 0 W/m2
03:26 7.5 °C 5.9 °C 1011.1 hPa WNW 6.4 km/h 12.9 km/h 90 % 0 mm 0 W/m2
03:31 7.4 °C 5.9 °C 1011.1 hPa WNW 4.8 km/h 9.7 km/h 90 % 0 mm 0 W/m2
03:36 7.3 °C 5.8 °C 1011.1 hPa WNW 4.8 km/h 9.7 km/h 90 % 0 mm 0 W/m2
03:41 7.3 °C 5.8 °C 1011.1 hPa WNW 4.8 km/h 9.7 km/h 90 % 0 mm 0 W/m2
03:46 7.2 °C 5.7 °C 1011.1 hPa WNW 6.4 km/h 9.7 km/h 90 % 0 mm 0 W/m2
03:51 7.3 °C 5.9 °C 1011.4 hPa WNW 6.4 km/h 11.3 km/h 91 % 0 mm 0 W/m2
03:56 7.3 °C 5.9 °C 1011.4 hPa WNW 6.4 km/h 11.3 km/h 91 % 0 mm 0 W/m2
04:01 7.3 °C 5.9 °C 1011.4 hPa WNW 4.8 km/h 9.7 km/h 91 % 0 mm 0 W/m2
04:06 7.3 °C 5.8 °C 1011.4 hPa WNW 3.2 km/h 8 km/h 90 % 0 mm 0 W/m2
04:12 7.2 °C 5.7 °C 1011.4 hPa WNW 3.2 km/h 6.4 km/h 90 % 0 mm 0 W/m2
04:18 7.1 °C 5.7 °C 1011.4 hPa WNW 3.2 km/h 6.4 km/h 91 % 0 mm 0 W/m2
04:21 7.1 °C 5.7 °C 1011.4 hPa WNW 3.2 km/h 6.4 km/h 91 % 0 mm 0 W/m2
04:22 7.1 °C 5.7 °C 1011.4 hPa WNW 3.2 km/h 6.4 km/h 91 % 0 mm 0 W/m2
04:27 7.1 °C 5.7 °C 1011.4 hPa WNW 3.2 km/h 9.7 km/h 91 % 0 mm 0 W/m2
04:29 7.2 °C 5.8 °C 1011.4 hPa WNW 4.8 km/h 9.7 km/h 91 % 0 mm 0 W/m2
04:34 7.2 °C 6 °C 1011.4 hPa WNW 4.8 km/h 9.7 km/h 92 % 0 mm 0 W/m2
04:39 7.3 °C 6.1 °C 1011.4 hPa WNW 3.2 km/h 9.7 km/h 92 % 0 mm 0 W/m2
04:44 7.3 °C 5.9 °C 1011.4 hPa WNW 3.2 km/h 8 km/h 91 % 0 mm 0 W/m2
04:49 7.3 °C 5.9 °C 1011.4 hPa WNW 3.2 km/h 8 km/h 91 % 0 mm 0 W/m2
04:54 7.3 °C 5.9 °C 1011.1 hPa WNW 3.2 km/h 6.4 km/h 91 % 0 mm 0 W/m2
04:59 7.3 °C 5.9 °C 1011.4 hPa WNW 1.6 km/h 6.4 km/h 91 % 0 mm 0 W/m2
05:04 7.3 °C 6.1 °C 1011.4 hPa WNW 1.6 km/h 4.8 km/h 92 % 0 mm 0 W/m2
05:09 7.2 °C 6 °C 1011.4 hPa WNW 1.6 km/h 6.4 km/h 92 % 0 mm 0 W/m2
05:14 7.3 °C 6.1 °C 1011.4 hPa WNW 3.2 km/h 6.4 km/h 92 % 0 mm 0 W/m2
05:19 7.3 °C 6.1 °C 1011.4 hPa WNW 3.2 km/h 9.7 km/h 92 % 0 mm 0 W/m2
05:24 7.6 °C 6.6 °C 1011.4 hPa WNW 4.8 km/h 12.9 km/h 93 % 0 mm 0 W/m2
05:29 7.8 °C 6.7 °C 1011.4 hPa WNW 6.4 km/h 12.9 km/h 93 % 0 mm 0 W/m2
05:34 8.1 °C 7.1 °C 1011.4 hPa WNW 6.4 km/h 14.5 km/h 93 % 0 mm 0 W/m2
05:39 8.3 °C 7.2 °C 1011.4 hPa WNW 6.4 km/h 14.5 km/h 93 % 0 mm 0 W/m2
05:44 8.5 °C 7.4 °C 1011.4 hPa WNW 6.4 km/h 12.9 km/h 93 % 0 mm 0 W/m2
05:49 8.6 °C 7.6 °C 1011.4 hPa WNW 6.4 km/h 12.9 km/h 93 % 0 mm 0 W/m2
05:54 8.7 °C 7.6 °C 1011.4 hPa WNW 6.4 km/h 12.9 km/h 93 % 0.25 mm 0 W/m2
05:59 8.8 °C 7.7 °C 1011.4 hPa WNW 6.4 km/h 11.3 km/h 93 % 0.25 mm 0 W/m2
06:04 8.8 °C 7.7 °C 1011.4 hPa WNW 6.4 km/h 11.3 km/h 93 % 0.25 mm 0 W/m2
06:09 8.8 °C 7.7 °C 1011.4 hPa WNW 4.8 km/h 11.3 km/h 93 % 0.25 mm 0 W/m2
06:14 8.9 °C 7.8 °C 1011.4 hPa WNW 4.8 km/h 11.3 km/h 93 % 0.25 mm 0 W/m2
06:19 8.9 °C 7.8 °C 1011.4 hPa WNW 3.2 km/h 11.3 km/h 93 % 0.25 mm 0 W/m2
06:24 8.9 °C 7.8 °C 1011.4 hPa WNW 3.2 km/h 9.7 km/h 93 % 0.25 mm 0 W/m2
06:29 8.9 °C 7.8 °C 1011.4 hPa WNW 4.8 km/h 9.7 km/h 93 % 0.25 mm 0 W/m2
06:34 8.9 °C 7.8 °C 1011.4 hPa WNW 3.2 km/h 8 km/h 93 % 0.25 mm 0 W/m2
06:39 8.9 °C 7.8 °C 1011.4 hPa WNW 3.2 km/h 9.7 km/h 93 % 0.25 mm 0 W/m2
06:44 9 °C 7.9 °C 1011.4 hPa WNW 4.8 km/h 11.3 km/h 93 % 0.25 mm 0 W/m2
06:49 9.1 °C 8 °C 1011.4 hPa WNW 6.4 km/h 11.3 km/h 93 % 0.25 mm 5 W/m2
06:54 9.1 °C 8 °C 1011.4 hPa WNW 6.4 km/h 9.7 km/h 93 % 0 mm 9 W/m2
06:59 9.1 °C 8 °C 1011.4 hPa WNW 6.4 km/h 12.9 km/h 93 % 0 mm 9 W/m2
07:04 9.2 °C 8.1 °C 1011.4 hPa WNW 6.4 km/h 12.9 km/h 93 % 0 mm 14 W/m2
07:09 9.3 °C 8.2 °C 1011.4 hPa WNW 6.4 km/h 11.3 km/h 93 % 0 mm 14 W/m2
07:14 9.3 °C 8.2 °C 1011.7 hPa WNW 8 km/h 14.5 km/h 93 % 0 mm 19 W/m2
07:19 9.3 °C 8.2 °C 1011.7 hPa WNW 6.4 km/h 14.5 km/h 93 % 0 mm 39 W/m2
07:24 9.4 °C 8.3 °C 1011.7 hPa WNW 6.4 km/h 11.3 km/h 93 % 0 mm 51 W/m2
07:29 9.5 °C 8.4 °C 1011.7 hPa WNW 6.4 km/h 11.3 km/h 93 % 0 mm 79 W/m2
07:34 9.6 °C 8.5 °C 1011.7 hPa WNW 6.4 km/h 11.3 km/h 93 % 0 mm 98 W/m2
07:39 9.7 °C 8.6 °C 1011.7 hPa WNW 4.8 km/h 11.3 km/h 93 % 0 mm 72 W/m2
07:44 9.8 °C 8.7 °C 1011.7 hPa WNW 6.4 km/h 14.5 km/h 93 % 0 mm 58 W/m2
07:49 9.9 °C 8.8 °C 1011.7 hPa WNW 6.4 km/h 14.5 km/h 93 % 0 mm 54 W/m2
07:54 10 °C 8.9 °C 1011.7 hPa WNW 4.8 km/h 12.9 km/h 93 % 0 mm 54 W/m2
08:00 10 °C 8.9 °C 1011.7 hPa NW 6.4 km/h 12.9 km/h 93 % 0 mm 67 W/m2
08:05 10.1 °C 9 °C 1012.1 hPa NW 8 km/h 14.5 km/h 93 % 0 mm 70 W/m2
08:10 10.1 °C 8.8 °C 1011.7 hPa NW 8 km/h 14.5 km/h 92 % 0 mm 72 W/m2
08:15 10.2 °C 8.9 °C 1012.1 hPa NW 6.4 km/h 14.5 km/h 92 % 0 mm 70 W/m2
08:20 10.2 °C 8.9 °C 1012.1 hPa NW 6.4 km/h 11.3 km/h 92 % 0 mm 70 W/m2
08:25 10.3 °C 9.1 °C 1012.1 hPa NW 6.4 km/h 12.9 km/h 92 % 0 mm 72 W/m2
08:30 10.3 °C 9.1 °C 1012.1 hPa NW 6.4 km/h 12.9 km/h 92 % 0 mm 83 W/m2
08:35 10.4 °C 9 °C 1012.1 hPa NW 6.4 km/h 14.5 km/h 91 % 0 mm 95 W/m2
08:40 10.4 °C 9 °C 1012.1 hPa NW 6.4 km/h 14.5 km/h 91 % 0 mm 104 W/m2
08:45 10.5 °C 9.1 °C 1012.1 hPa WNW 6.4 km/h 12.9 km/h 91 % 0 mm 111 W/m2
08:50 10.6 °C 9.2 °C 1012.1 hPa NW 6.4 km/h 11.3 km/h 91 % 0 mm 123 W/m2
08:55 10.7 °C 9.3 °C 1012.4 hPa NW 8 km/h 16.1 km/h 91 % 0 mm 118 W/m2
09:00 10.8 °C 9.2 °C 1012.4 hPa NW 8 km/h 16.1 km/h 90 % 0 mm 111 W/m2
09:05 10.9 °C 9.3 °C 1012.4 hPa WNW 8 km/h 16.1 km/h 90 % 0 mm 128 W/m2
09:10 11.1 °C 9.5 °C 1012.4 hPa WNW 8 km/h 16.1 km/h 90 % 0 mm 146 W/m2
09:15 11.2 °C 9.4 °C 1012.4 hPa NW 6.4 km/h 12.9 km/h 89 % 0 mm 163 W/m2
09:20 11.3 °C 9.6 °C 1012.8 hPa NW 6.4 km/h 17.7 km/h 89 % 0 mm 169 W/m2
09:25 11.4 °C 9.5 °C 1012.8 hPa NW 8 km/h 17.7 km/h 88 % 0 mm 176 W/m2
09:30 11.6 °C 9.7 °C 1012.8 hPa NW 8 km/h 16.1 km/h 88 % 0 mm 211 W/m2
09:35 11.7 °C 9.8 °C 1012.8 hPa NW 8 km/h 17.7 km/h 88 % 0 mm 309 W/m2
09:40 11.9 °C 9.8 °C 1012.8 hPa NW 9.7 km/h 20.9 km/h 87 % 0 mm 327 W/m2
09:45 12.3 °C 10 °C 1012.8 hPa NW 9.7 km/h 20.9 km/h 86 % 0 mm 478 W/m2
09:50 12.6 °C 9.9 °C 1012.8 hPa NW 11.3 km/h 22.5 km/h 84 % 0 mm 413 W/m2
09:55 12.9 °C 10.1 °C 1012.8 hPa NW 11.3 km/h 22.5 km/h 83 % 0 mm 411 W/m2
10:00 13.2 °C 10.2 °C 1012.8 hPa NW 9.7 km/h 19.3 km/h 82 % 0 mm 490 W/m2
10:05 13.4 °C 10.2 °C 1012.8 hPa NW 9.7 km/h 24.1 km/h 81 % 0 mm 555 W/m2
10:10 13.4 °C 9.8 °C 1012.8 hPa NW 11.3 km/h 24.1 km/h 79 % 0 mm 229 W/m2
10:15 13.4 °C 9.4 °C 1012.8 hPa NNW 11.3 km/h 19.3 km/h 77 % 0 mm 172 W/m2
10:20 13.3 °C 9.6 °C 1012.8 hPa NNW 9.7 km/h 17.7 km/h 78 % 0 mm 155 W/m2
10:25 13.2 °C 9.6 °C 1012.8 hPa NNW 9.7 km/h 17.7 km/h 79 % 0 mm 229 W/m2
10:30 13.3 °C 9.9 °C 1012.8 hPa NNW 6.4 km/h 17.7 km/h 80 % 0 mm 185 W/m2
10:35 13.2 °C 9.6 °C 1012.8 hPa NW 6.4 km/h 16.1 km/h 79 % 0 mm 179 W/m2
10:40 13.3 °C 9.7 °C 1012.8 hPa NW 8 km/h 16.1 km/h 79 % 0 mm 740 W/m2
10:45 13.4 °C 9.4 °C 1012.8 hPa NNW 11.3 km/h 22.5 km/h 77 % 0 mm 740 W/m2
10:51 13.6 °C 9.4 °C 1012.8 hPa NNW 11.3 km/h 22.5 km/h 76 % 0 mm 200 W/m2
10:55 13.7 °C 9.2 °C 1012.8 hPa NNW 11.3 km/h 19.3 km/h 74 % 0 mm 176 W/m2
11:01 13.7 °C 9.2 °C 1012.8 hPa NNW 11.3 km/h 22.5 km/h 74 % 0 mm 316 W/m2
11:06 13.8 °C 9.1 °C 1012.8 hPa North 9.7 km/h 22.5 km/h 73 % 0 mm 830 W/m2
11:11 14 °C 9.4 °C 1012.8 hPa North 9.7 km/h 20.9 km/h 74 % 0 mm 141 W/m2
11:16 14 °C 9.1 °C 1012.8 hPa NNE 8 km/h 19.3 km/h 72 % 0 mm 162 W/m2
11:21 13.9 °C 8.9 °C 1012.8 hPa North 8 km/h 17.7 km/h 72 % 0 mm 267 W/m2
11:26 13.8 °C 8.8 °C 1012.8 hPa NNE 8 km/h 17.7 km/h 72 % 0 mm 186 W/m2
11:31 13.7 °C 8.7 °C 1012.8 hPa NNE 8 km/h 17.7 km/h 72 % 0 mm 160 W/m2
11:36 13.6 °C 8.7 °C 1012.8 hPa North 9.7 km/h 19.3 km/h 72 % 0 mm 169 W/m2
11:41 13.6 °C 8.7 °C 1012.8 hPa North 9.7 km/h 19.3 km/h 72 % 0 mm 227 W/m2
11:46 13.7 °C 8.7 °C 1012.8 hPa NNW 8 km/h 14.5 km/h 72 % 0 mm 243 W/m2
11:52 13.7 °C 8.7 °C 1012.8 hPa NNW 6.4 km/h 14.5 km/h 72 % 0 mm 251 W/m2
11:57 13.8 °C 8.8 °C 1012.8 hPa North 6.4 km/h 17.7 km/h 72 % 0 mm 218 W/m2
12:02 13.8 °C 8.8 °C 1012.8 hPa North 8 km/h 17.7 km/h 72 % 0 mm 197 W/m2
12:07 13.9 °C 8.9 °C 1012.8 hPa North 8 km/h 14.5 km/h 72 % 0 mm 192 W/m2
12:12 13.9 °C 8.7 °C 1012.8 hPa North 8 km/h 14.5 km/h 71 % 0 mm 183 W/m2
12:17 14 °C 8.8 °C 1012.8 hPa North 6.4 km/h 14.5 km/h 71 % 0 mm 200 W/m2
12:22 14 °C 8.8 °C 1013.1 hPa NNW 8 km/h 19.3 km/h 71 % 0 mm 232 W/m2
12:27 14.1 °C 8.9 °C 1013.1 hPa North 9.7 km/h 19.3 km/h 71 % 0 mm 294 W/m2
12:32 14.1 °C 8.9 °C 1012.8 hPa NNW 9.7 km/h 17.7 km/h 71 % 0 mm 517 W/m2
12:37 14.3 °C 8.9 °C 1012.8 hPa NNW 11.3 km/h 20.9 km/h 70 % 0 mm 330 W/m2
12:42 14.3 °C 8.9 °C 1013.1 hPa North 11.3 km/h 20.9 km/h 70 % 0 mm 336 W/m2
12:47 14.3 °C 8.9 °C 1013.1 hPa NNE 9.7 km/h 17.7 km/h 70 % 0 mm 257 W/m2
12:52 14.1 °C 8.5 °C 1013.1 hPa NNE 9.7 km/h 17.7 km/h 69 % 0 mm 181 W/m2
12:57 14.1 °C 8.7 °C 1013.1 hPa North 11.3 km/h 17.7 km/h 70 % 0 mm 230 W/m2
13:02 14.1 °C 8.7 °C 1013.1 hPa North 11.3 km/h 19.3 km/h 70 % 0 mm 320 W/m2
13:07 14.2 °C 9 °C 1013.1 hPa North 9.7 km/h 19.3 km/h 71 % 0 mm 322 W/m2
13:12 14.2 °C 8.8 °C 1013.1 hPa North 9.7 km/h 16.1 km/h 70 % 0 mm 295 W/m2
13:17 14.3 °C 8.9 °C 1013.1 hPa North 9.7 km/h 16.1 km/h 70 % 0 mm 315 W/m2
13:22 14.4 °C 8.6 °C 1013.1 hPa North 8 km/h 16.1 km/h 68 % 0 mm 329 W/m2
13:27 14.6 °C 8.8 °C 1013.1 hPa North 8 km/h 16.1 km/h 68 % 0 mm 248 W/m2
13:32 14.6 °C 8.8 °C 1013.1 hPa NNE 8 km/h 16.1 km/h 68 % 0 mm 214 W/m2
13:37 14.4 °C 8.8 °C 1013.1 hPa NNE 8 km/h 22.5 km/h 69 % 0 mm 246 W/m2
13:42 14.3 °C 8.7 °C 1013.1 hPa NNE 9.7 km/h 22.5 km/h 69 % 0 mm 272 W/m2
13:47 14.3 °C 8.7 °C 1013.1 hPa North 9.7 km/h 16.1 km/h 69 % 0 mm 396 W/m2
13:52 14.5 °C 8.9 °C 1013.1 hPa North 8 km/h 16.1 km/h 69 % 0 mm 364 W/m2
13:57 14.7 °C 8.6 °C 1013.1 hPa NNW 9.7 km/h 19.3 km/h 67 % 0 mm 406 W/m2
14:02 15 °C 8.7 °C 1013.1 hPa NNW 11.3 km/h 19.3 km/h 66 % 0 mm 418 W/m2
14:07 15.1 °C 8.8 °C 1013.1 hPa NNW 9.7 km/h 19.3 km/h 66 % 0 mm 206 W/m2
14:12 15.2 °C 8.7 °C 1013.1 hPa North 8 km/h 17.7 km/h 65 % 0 mm 221 W/m2
14:14 15.2 °C 8.7 °C 1013.1 hPa North 8 km/h 17.7 km/h 65 % 0 mm 243 W/m2
14:19 15.2 °C 8.7 °C 1013.1 hPa NNW 9.7 km/h 19.3 km/h 65 % 0 mm 309 W/m2
14:24 15.2 °C 8.7 °C 1013.1 hPa NNW 9.7 km/h 19.3 km/h 65 % 0 mm 352 W/m2
14:29 15.1 °C 8.6 °C 1013.1 hPa North 8 km/h 17.7 km/h 65 % 0 mm 292 W/m2
14:34 15.1 °C 8.6 °C 1013.1 hPa NNE 8 km/h 17.7 km/h 65 % 0 mm 281 W/m2
14:39 15.1 °C 8.6 °C 1012.8 hPa NNE 8 km/h 17.7 km/h 65 % 0 mm 341 W/m2
14:44 15.1 °C 8.6 °C 1012.8 hPa NE 8 km/h 17.7 km/h 65 % 0 mm 237 W/m2
14:49 15.2 °C 8.7 °C 1013.1 hPa NE 6.4 km/h 14.5 km/h 65 % 0 mm 134 W/m2
14:54 15.2 °C 8.4 °C 1012.8 hPa North 6.4 km/h 14.5 km/h 64 % 0 mm 171 W/m2
14:59 15.1 °C 8.3 °C 1012.8 hPa North 8 km/h 14.5 km/h 64 % 0 mm 192 W/m2
15:04 15.1 °C 8.1 °C 1012.8 hPa North 8 km/h 17.7 km/h 63 % 0 mm 236 W/m2
15:09 15.1 °C 8.1 °C 1012.8 hPa NNW 8 km/h 17.7 km/h 63 % 0 mm 278 W/m2
15:14 15.1 °C 8.1 °C 1012.8 hPa North 9.7 km/h 16.1 km/h 63 % 0 mm 253 W/m2
15:19 14.9 °C 7.9 °C 1012.8 hPa North 8 km/h 17.7 km/h 63 % 0 mm 290 W/m2
15:24 15.1 °C 8.3 °C 1012.8 hPa North 8 km/h 17.7 km/h 64 % 0 mm 657 W/m2
15:29 15.4 °C 8.6 °C 1012.4 hPa NNW 6.4 km/h 14.5 km/h 64 % 0 mm 708 W/m2
15:34 15.9 °C 8.6 °C 1012.4 hPa NW 6.4 km/h 14.5 km/h 62 % 0 mm 332 W/m2
15:39 16 °C 8.5 °C 1012.4 hPa NNW 8 km/h 19.3 km/h 61 % 0 mm 207 W/m2
15:44 15.9 °C 8.4 °C 1012.4 hPa NW 9.7 km/h 19.3 km/h 61 % 0 mm 121 W/m2
15:49 15.8 °C 8.6 °C 1012.4 hPa NNW 9.7 km/h 19.3 km/h 62 % 0 mm 84 W/m2
15:54 15.6 °C 8.6 °C 1012.4 hPa NW 8 km/h 17.7 km/h 63 % 0 mm 62 W/m2
15:59 15.4 °C 8.4 °C 1012.4 hPa NW 9.7 km/h 16.1 km/h 63 % 0 mm 56 W/m2
16:04 15.2 °C 8.7 °C 1012.8 hPa NW 9.7 km/h 16.1 km/h 65 % 0 mm 72 W/m2
16:09 15 °C 8.9 °C 1012.4 hPa NW 8 km/h 16.1 km/h 67 % 0 mm 88 W/m2
16:14 14.8 °C 9.2 °C 1012.4 hPa NW 8 km/h 16.1 km/h 69 % 0 mm 121 W/m2
16:19 14.6 °C 9 °C 1012.4 hPa NW 8 km/h 14.5 km/h 69 % 0 mm 153 W/m2
16:24 14.6 °C 9.2 °C 1012.4 hPa NW 8 km/h 16.1 km/h 70 % 0 mm 202 W/m2
16:29 14.6 °C 9.4 °C 1012.4 hPa NW 8 km/h 16.1 km/h 71 % 0 mm 229 W/m2
16:34 14.8 °C 9.2 °C 1012.4 hPa NW 8 km/h 12.9 km/h 69 % 0 mm 192 W/m2
16:39 15 °C 9.3 °C 1012.4 hPa NW 8 km/h 14.5 km/h 69 % 0 mm 461 W/m2
16:44 15.3 °C 9.4 °C 1012.4 hPa NW 6.4 km/h 14.5 km/h 68 % 0 mm 267 W/m2
16:49 15.6 °C 9.1 °C 1012.4 hPa NW 8 km/h 16.1 km/h 65 % 0 mm 390 W/m2
16:54 15.8 °C 9 °C 1012.4 hPa NW 11.3 km/h 16.1 km/h 64 % 0 mm 367 W/m2
17:00 16 °C 8.9 °C 1012.4 hPa NW 9.7 km/h 16.1 km/h 63 % 0 mm 86 W/m2
17:05 15.9 °C 8.4 °C 1012.4 hPa NW 8 km/h 16.1 km/h 61 % 0 mm 134 W/m2
17:10 15.9 °C 8.4 °C 1012.4 hPa NW 9.7 km/h 16.1 km/h 61 % 0 mm 313 W/m2
17:15 16.2 °C 8.7 °C 1012.4 hPa NW 8 km/h 14.5 km/h 61 % 0 mm 401 W/m2
17:20 16.3 °C 8.5 °C 1012.4 hPa NW 8 km/h 14.5 km/h 60 % 0 mm 54 W/m2
17:25 16.1 °C 9.1 °C 1012.4 hPa NW 9.7 km/h 22.5 km/h 63 % 0 mm 32 W/m2
17:30 15.6 °C 10.2 °C 1012.8 hPa NW 12.9 km/h 30.6 km/h 70 % 0.25 mm 18 W/m2
17:35 14.4 °C 10 °C 1012.8 hPa NW 14.5 km/h 30.6 km/h 75 % 1.27 mm 21 W/m2
17:40 13.2 °C 9.6 °C 1012.8 hPa NNW 14.5 km/h 22.5 km/h 79 % 2.29 mm 33 W/m2
17:45 12.6 °C 9.8 °C 1012.8 hPa NNW 12.9 km/h 22.5 km/h 83 % 2.54 mm 42 W/m2
17:50 12.2 °C 9.8 °C 1012.8 hPa North 8 km/h 17.7 km/h 85 % 2.79 mm 114 W/m2
17:55 12.1 °C 9.8 °C 1012.8 hPa North 3.2 km/h 12.9 km/h 86 % 2.79 mm 285 W/m2
18:00 12.2 °C 10.3 °C 1012.8 hPa NNW 1.6 km/h 8 km/h 88 % 3.05 mm 218 W/m2
18:05 12.4 °C 10.6 °C 1012.8 hPa NNW 1.6 km/h 8 km/h 89 % 3.05 mm 107 W/m2
18:10 12.6 °C 10.8 °C 1012.8 hPa NNW 3.2 km/h 8 km/h 89 % 3.05 mm 151 W/m2
18:15 12.8 °C 11.1 °C 1012.8 hPa NW 3.2 km/h 8 km/h 89 % 3.05 mm 40 W/m2
18:20 12.8 °C 11.1 °C 1012.4 hPa WNW 4.8 km/h 9.7 km/h 89 % 3.05 mm 97 W/m2
18:25 12.8 °C 11.1 °C 1012.8 hPa West 3.2 km/h 9.7 km/h 89 % 3.05 mm 81 W/m2
18:30 12.8 °C 10.8 °C 1012.4 hPa West 1.6 km/h 8 km/h 88 % 2.79 mm 23 W/m2
18:35 12.6 °C 10.7 °C 1012.4 hPa West 1.6 km/h 6.4 km/h 88 % 1.78 mm 18 W/m2
18:40 12.5 °C 10.6 °C 1012.8 hPa West 1.6 km/h 6.4 km/h 88 % 0.51 mm 16 W/m2
18:45 12.3 °C 10.4 °C 1012.8 hPa West 3.2 km/h 6.4 km/h 88 % 0.51 mm 12 W/m2
18:50 12.1 °C 10.3 °C 1012.8 hPa WNW 3.2 km/h 8 km/h 89 % 0.25 mm 16 W/m2
18:55 11.9 °C 10.2 °C 1012.8 hPa NW 6.4 km/h 17.7 km/h 89 % 0.25 mm 26 W/m2
19:00 11.7 °C 9.9 °C 1012.8 hPa NW 9.7 km/h 17.7 km/h 89 % 0 mm 28 W/m2
19:05 11.7 °C 9.9 °C 1012.8 hPa NW 8 km/h 16.1 km/h 89 % 0 mm 25 W/m2
19:10 11.7 °C 10.1 °C 1012.8 hPa WNW 8 km/h 12.9 km/h 90 % 0 mm 14 W/m2
19:15 11.6 °C 10 °C 1012.8 hPa WNW 6.4 km/h 12.9 km/h 90 % 0 mm 9 W/m2
19:20 11.6 °C 10 °C 1012.8 hPa West 3.2 km/h 8 km/h 90 % 0 mm 5 W/m2
19:25 11.5 °C 10.1 °C 1012.8 hPa West 1.6 km/h 8 km/h 91 % 0 mm 0 W/m2
19:30 11.4 °C 10 °C 1012.8 hPa West 1.6 km/h 6.4 km/h 91 % 0 mm 0 W/m2
19:35 11.4 °C 10 °C 1012.8 hPa West 1.6 km/h 8 km/h 91 % 0 mm 0 W/m2
19:40 11.3 °C 9.9 °C 1012.8 hPa West 4.8 km/h 9.7 km/h 91 % 0 mm 0 W/m2
19:45 11.2 °C 9.8 °C 1012.8 hPa West 6.4 km/h 9.7 km/h 91 % 0 mm 0 W/m2
19:51 11 °C 9.6 °C 1012.8 hPa West 3.2 km/h 9.7 km/h 91 % 0 mm 0 W/m2
19:56 10.9 °C 9.7 °C 1012.8 hPa West 1.6 km/h 8 km/h 92 % 0 mm 0 W/m2
20:01 10.8 °C 9.6 °C 1012.8 hPa West 1.6 km/h 6.4 km/h 92 % 0 mm 0 W/m2
20:06 10.7 °C 9.4 °C 1012.8 hPa WNW 3.2 km/h 9.7 km/h 92 % 0 mm 0 W/m2
20:11 10.6 °C 9.3 °C 1012.8 hPa WNW 4.8 km/h 9.7 km/h 92 % 0 mm 0 W/m2
20:16 10.5 °C 9.3 °C 1012.8 hPa WNW 4.8 km/h 9.7 km/h 92 % 0 mm 0 W/m2
20:21 10.4 °C 9 °C 1012.8 hPa WNW 4.8 km/h 9.7 km/h 91 % 0 mm 0 W/m2
20:26 10.3 °C 8.9 °C 1013.1 hPa WNW 4.8 km/h 9.7 km/h 91 % 0 mm 0 W/m2
20:31 10.1 °C 8.7 °C 1013.1 hPa WNW 3.2 km/h 8 km/h 91 % 0 mm 0 W/m2
20:36 10 °C 8.6 °C 1013.1 hPa WNW 3.2 km/h 8 km/h 91 % 0 mm 0 W/m2
20:41 9.9 °C 8.7 °C 1013.1 hPa WNW 3.2 km/h 9.7 km/h 92 % 0 mm 0 W/m2
20:46 9.8 °C 8.6 °C 1013.1 hPa WNW 6.4 km/h 11.3 km/h 92 % 0 mm 0 W/m2
20:51 9.8 °C 8.6 °C 1013.1 hPa WNW 6.4 km/h 11.3 km/h 92 % 0 mm 0 W/m2
20:56 9.7 °C 8.4 °C 1013.1 hPa WNW 4.8 km/h 11.3 km/h 92 % 0 mm 0 W/m2
21:01 9.7 °C 8.4 °C 1013.1 hPa WNW 3.2 km/h 8 km/h 92 % 0 mm 0 W/m2
21:06 9.6 °C 8.4 °C 1013.1 hPa WNW 3.2 km/h 8 km/h 92 % 0 mm 0 W/m2
21:11 9.6 °C 8.4 °C 1013.1 hPa WNW 4.8 km/h 8 km/h 92 % 0 mm 0 W/m2
21:16 9.6 °C 8.4 °C 1012.8 hPa WNW 4.8 km/h 9.7 km/h 92 % 0 mm 0 W/m2
21:21 9.6 °C 8.4 °C 1013.1 hPa WNW 4.8 km/h 9.7 km/h 92 % 0 mm 0 W/m2
21:26 9.5 °C 8.3 °C 1013.1 hPa WNW 6.4 km/h 11.3 km/h 92 % 0 mm 0 W/m2
21:31 9.5 °C 8.3 °C 1012.8 hPa WNW 8 km/h 11.3 km/h 92 % 0 mm 0 W/m2
21:36 9.6 °C 8.5 °C 1013.1 hPa WNW 6.4 km/h 12.9 km/h 93 % 0 mm 0 W/m2
21:41 9.5 °C 8.3 °C 1013.1 hPa WNW 6.4 km/h 12.9 km/h 92 % 0 mm 0 W/m2
21:46 9.5 °C 8.3 °C 1012.8 hPa WNW 6.4 km/h 9.7 km/h 92 % 0 mm 0 W/m2
21:51 9.4 °C 8.2 °C 1012.8 hPa WNW 4.8 km/h 9.7 km/h 92 % 0 mm 0 W/m2
21:56 9.3 °C 8.1 °C 1013.1 hPa WNW 4.8 km/h 11.3 km/h 92 % 0 mm 0 W/m2
22:01 9.3 °C 8.1 °C 1013.1 hPa WNW 6.4 km/h 11.3 km/h 92 % 0 mm 0 W/m2
22:06 9.3 °C 8.1 °C 1013.1 hPa WNW 8 km/h 17.7 km/h 92 % 0 mm 0 W/m2
22:11 9.4 °C 8.2 °C 1012.8 hPa WNW 9.7 km/h 17.7 km/h 92 % 0 mm 0 W/m2
22:16 9.4 °C 8.2 °C 1013.1 hPa WNW 8 km/h 16.1 km/h 92 % 0 mm 0 W/m2
22:21 9.5 °C 8.3 °C 1012.8 hPa NW 6.4 km/h 14.5 km/h 92 % 0 mm 0 W/m2
22:27 9.6 °C 8.4 °C 1013.1 hPa NW 8 km/h 14.5 km/h 92 % 0 mm 0 W/m2
22:32 9.7 °C 8.3 °C 1013.1 hPa NW 9.7 km/h 17.7 km/h 91 % 0 mm 0 W/m2
22:37 9.8 °C 8.4 °C 1013.1 hPa NW 9.7 km/h 17.7 km/h 91 % 0 mm 0 W/m2
22:42 9.8 °C 8.4 °C 1013.1 hPa WNW 8 km/h 14.5 km/h 91 % 0 mm 0 W/m2
22:47 9.9 °C 8.3 °C 1013.1 hPa WNW 8 km/h 14.5 km/h 90 % 0 mm 0 W/m2
22:52 9.9 °C 8.3 °C 1013.1 hPa NW 6.4 km/h 12.9 km/h 90 % 0 mm 0 W/m2
22:57 9.9 °C 8.3 °C 1013.1 hPa NW 6.4 km/h 12.9 km/h 90 % 0 mm 0 W/m2
23:02 9.9 °C 8.5 °C 1013.1 hPa WNW 8 km/h 17.7 km/h 91 % 0 mm 0 W/m2
23:07 9.9 °C 8.5 °C 1013.1 hPa WNW 6.4 km/h 17.7 km/h 91 % 0 mm 0 W/m2
23:12 9.9 °C 8.5 °C 1013.1 hPa NW 4.8 km/h 11.3 km/h 91 % 0 mm 0 W/m2
23:17 9.9 °C 8.5 °C 1013.1 hPa NW 4.8 km/h 12.9 km/h 91 % 0 mm 0 W/m2
23:22 10 °C 8.6 °C 1012.8 hPa NW 6.4 km/h 14.5 km/h 91 % 0 mm 0 W/m2
23:27 10.1 °C 8.6 °C 1013.1 hPa WNW 6.4 km/h 14.5 km/h 90 % 0 mm 0 W/m2
23:32 10.1 °C 8.6 °C 1013.1 hPa NW 6.4 km/h 11.3 km/h 90 % 0 mm 0 W/m2
23:37 10.1 °C 8.6 °C 1013.1 hPa NW 4.8 km/h 9.7 km/h 90 % 0 mm 0 W/m2
23:42 10.1 °C 8.6 °C 1013.1 hPa WNW 4.8 km/h 11.3 km/h 90 % 0 mm 0 W/m2
23:47 10 °C 8.4 °C 1012.8 hPa WNW 6.4 km/h 11.3 km/h 90 % 0 mm 0 W/m2
23:52 10 °C 8.4 °C 1012.8 hPa WNW 6.4 km/h 11.3 km/h 90 % 0 mm 0 W/m2
Delerius-Weather
Compliments of Weather Underground - 2.25 mb

Data updates at regular intervals.